Time;durP1;ratioP1;P1;durP2;ratioP2;P2;SDS_P1;SDS_P2;PMS_P1;PMS_P2;Temp;Humidity;BMP_temperature;BMP_pressure;BME280_temperature;BME280_humidity;BME280_pressure;Samples;Min_cycle;Max_cycle;Signal;HPM_P1;HPM_P2
2021/07/22 00:00:12;;;;;;;8.27;4.40;;;;;;;16.87;94.54;101414.56;4987937;28;20236;-76
2021/07/22 00:02:38;;;;;;;6.73;4.40;;;;;;;16.84;94.46;101418.19;4979578;28;20763;-76
2021/07/22 00:05:08;;;;;;;5.80;4.03;;;;;;;16.81;93.77;101407.75;4990242;28;20221;-76
2021/07/22 00:07:36;;;;;;;7.30;4.90;;;;;;;16.81;94.18;101416.50;4977449;28;20259;-75
2021/07/22 00:10:02;;;;;;;6.60;4.57;;;;;;;16.79;93.62;101418.34;4984644;28;20467;-76
2021/07/22 00:12:29;;;;;;;7.17;4.67;;;;;;;16.78;94.87;101414.00;4980094;28;20201;-75
2021/07/22 00:14:55;;;;;;;6.07;4.60;;;;;;;16.77;94.90;101414.91;4989957;28;20530;-76
2021/07/22 00:17:21;;;;;;;6.60;4.67;;;;;;;16.77;94.58;101421.97;4976894;28;20206;-76
2021/07/22 00:19:48;;;;;;;7.23;4.63;;;;;;;16.75;94.89;101415.91;4989295;28;20611;-76
2021/07/22 00:22:14;;;;;;;8.57;5.00;;;;;;;16.77;94.49;101416.69;4979873;28;20213;-75
2021/07/22 00:24:42;;;;;;;7.07;4.43;;;;;;;16.73;94.94;101413.34;4982443;28;20260;-75
2021/07/22 00:27:08;;;;;;;7.97;4.70;;;;;;;16.73;95.73;101420.38;4983408;28;20580;-75
2021/07/22 00:29:35;;;;;;;8.17;4.60;;;;;;;16.76;95.95;101420.25;4986490;28;20227;-75
2021/07/22 00:32:01;;;;;;;7.30;4.83;;;;;;;16.73;96.45;101415.13;4983545;28;20314;-75
2021/07/22 00:34:28;;;;;;;6.83;4.83;;;;;;;16.69;95.62;101418.78;4988307;28;20209;-76
2021/07/22 00:36:54;;;;;;;7.23;4.50;;;;;;;16.69;95.91;101413.50;4986256;28;20212;-75
2021/07/22 00:39:21;;;;;;;7.93;5.27;;;;;;;16.66;96.12;101412.72;4984083;28;20232;-75
2021/07/22 00:41:53;;;;;;;8.17;5.47;;;;;;;16.68;96.02;101410.03;4977020;28;20675;-76
2021/07/22 00:44:19;;;;;;;6.40;4.80;;;;;;;16.68;95.57;101415.28;4982810;28;20212;-76
2021/07/22 00:46:46;;;;;;;9.17;5.37;;;;;;;16.65;95.51;101410.97;4992350;28;20219;-76
2021/07/22 00:49:13;;;;;;;8.07;4.93;;;;;;;16.64;95.85;101403.16;4979715;28;20683;-75
2021/07/22 00:51:40;;;;;;;6.90;4.97;;;;;;;16.62;95.33;101416.38;4990393;28;20220;-76
2021/07/22 00:54:09;;;;;;;6.30;4.70;;;;;;;16.62;95.23;101407.63;4968625;28;20244;-76
2021/07/22 00:56:38;;;;;;;6.73;4.60;;;;;;;16.60;96.10;101412.09;4985350;28;20225;-76
2021/07/22 00:59:06;;;;;;;6.67;4.70;;;;;;;16.61;96.39;101413.81;4958101;28;20394;-76
2021/07/22 01:01:35;;;;;;;7.47;4.83;;;;;;;16.57;95.78;101407.81;4991975;28;20207;-76
2021/07/22 01:04:01;;;;;;;7.67;5.23;;;;;;;16.53;95.79;101407.97;4980376;28;20270;-76
2021/07/22 01:06:27;;;;;;;7.70;5.33;;;;;;;16.55;96.14;101414.03;4986618;28;20236;-76
2021/07/22 01:08:55;;;;;;;7.10;5.20;;;;;;;16.56;95.72;101413.97;4969257;28;20302;-76
2021/07/22 01:11:25;;;;;;;8.13;5.37;;;;;;;16.54;95.76;101414.97;4985482;28;20237;-76
2021/07/22 01:13:53;;;;;;;7.27;5.20;;;;;;;16.52;96.09;101411.53;4961014;28;20499;-76
2021/07/22 01:16:22;;;;;;;7.93;4.93;;;;;;;16.54;95.84;101414.97;4991290;28;20830;-76
2021/07/22 01:18:48;;;;;;;7.23;4.93;;;;;;;16.54;96.60;101414.97;4985046;28;20248;-76
2021/07/22 01:21:16;;;;;;;8.60;5.30;;;;;;;16.55;96.32;101411.41;4989422;28;20573;-76
2021/07/22 01:23:43;;;;;;;8.00;5.13;;;;;;;16.54;96.36;101407.06;4967596;28;20264;-75
2021/07/22 01:26:28;;;;;;;7.57;5.50;;;;;;;16.53;96.81;101406.19;4983607;28;20232;-75
2021/07/22 01:29:00;;;;;;;8.67;5.57;;;;;;;16.47;95.93;101409.94;4971783;28;20207;-75
2021/07/22 01:31:27;;;;;;;6.03;4.97;;;;;;;16.47;96.83;101403.81;4968835;28;20217;-75
2021/07/22 01:33:54;;;;;;;8.60;5.13;;;;;;;16.46;96.64;101405.59;4990622;28;20209;-75
2021/07/22 01:36:23;;;;;;;9.13;5.60;;;;;;;16.41;96.42;101404.03;4968605;28;20257;-76
2021/07/22 01:38:52;;;;;;;8.07;5.00;;;;;;;16.40;96.87;101403.19;4985924;28;20667;-75
2021/07/22 01:41:20;;;;;;;7.60;5.30;;;;;;;16.47;97.99;101406.44;4980956;28;20206;-75
2021/07/22 01:43:47;;;;;;;8.20;5.20;;;;;;;16.42;97.99;101398.72;4992079;28;20205;-75
2021/07/22 01:46:18;;;;;;;7.20;5.07;;;;;;;16.43;98.20;101391.69;4980114;28;20758;-76
2021/07/22 01:48:46;;;;;;;8.63;5.57;;;;;;;16.44;97.76;101398.66;4973281;28;20241;-75
2021/07/22 01:51:12;;;;;;;6.83;5.30;;;;;;;16.42;98.02;101393.44;4978201;28;20937;-75
2021/07/22 01:53:46;;;;;;;9.40;5.23;;;;;;;16.41;98.18;101402.28;4974294;28;20696;-75
2021/07/22 01:56:14;;;;;;;7.53;5.23;;;;;;;16.41;97.94;101391.75;4973291;28;20237;-76
2021/07/22 01:58:41;;;;;;;7.30;4.87;;;;;;;16.44;97.93;101390.75;4979887;28;20214;-76
2021/07/22 02:01:09;;;;;;;7.60;5.20;;;;;;;16.44;98.46;101396.03;4971275;28;20204;-76
2021/07/22 02:03:35;;;;;;;7.20;4.97;;;;;;;16.44;98.24;101396.03;4972879;28;20240;-75
2021/07/22 02:06:07;;;;;;;7.97;5.20;;;;;;;16.42;98.32;101403.97;4985563;28;20315;-76
2021/07/22 02:08:34;;;;;;;7.10;5.20;;;;;;;16.38;97.39;101396.28;4972216;28;20227;-76
2021/07/22 02:11:03;;;;;;;8.60;5.03;;;;;;;16.42;98.71;101398.72;4972696;28;20282;-76
2021/07/22 02:13:30;;;;;;;8.17;5.90;;;;;;;16.47;99.43;101390.66;4968707;28;20328;-76
2021/07/22 02:15:57;;;;;;;7.20;5.17;;;;;;;16.39;97.73;101390.97;4994293;28;20311;-75
2021/07/22 02:18:30;;;;;;;9.50;5.70;;;;;;;16.41;98.17;101396.13;4976282;28;20529;-76
2021/07/22 02:21:04;;;;;;;7.13;4.97;;;;;;;16.39;98.46;101397.97;4968876;28;20624;-76
2021/07/22 02:23:32;;;;;;;10.10;5.83;;;;;;;16.39;99.14;101393.59;4967353;28;20220;-75
2021/07/22 02:26:13;;;;;;;9.00;5.03;;;;;;;16.36;99.17;101400.72;4967760;28;20604;-75
2021/07/22 02:28:39;;;;;;;8.70;5.33;;;;;;;16.36;98.51;101395.44;4963660;28;20214;-75
2021/07/22 02:31:07;;;;;;;11.90;4.97;;;;;;;16.33;98.49;101392.97;4973379;28;20398;-75
2021/07/22 02:33:33;;;;;;;8.47;5.50;;;;;;;16.33;98.77;101393.81;4978433;28;20205;-76
2021/07/22 02:36:00;;;;;;;7.47;5.33;;;;;;;16.34;98.43;101392.91;4988430;28;20233;-76
2021/07/22 02:38:53;;;;;;;9.90;5.43;;;;;;;16.36;98.35;101391.06;4970962;28;20212;-76
2021/07/22 02:41:21;;;;;;;10.07;6.03;;;;;;;16.31;97.65;101400.06;4969329;28;20297;-76
2021/07/22 02:43:48;;;;;;;8.90;5.87;;;;;;;16.26;98.02;101403.69;4984799;28;20205;-76
2021/07/22 02:46:14;;;;;;;9.33;5.67;;;;;;;16.30;98.72;101400.97;4981140;28;20232;-76
2021/07/22 02:48:55;;;;;;;7.53;4.97;;;;;;;16.27;97.35;101396.69;4980892;28;20258;-76
2021/07/22 02:51:22;;;;;;;8.50;5.17;;;;;;;16.28;98.31;101401.88;4993963;28;20264;-76
2021/07/22 02:53:48;;;;;;;9.77;5.93;;;;;;;16.28;98.60;101401.00;4975937;28;20209;-76
2021/07/22 02:56:25;;;;;;;8.73;5.60;;;;;;;16.35;98.51;101399.00;4978147;28;20229;-75
2021/07/22 02:58:57;;;;;;;8.87;5.57;;;;;;;16.37;100.00;101395.41;4973271;28;20204;-76
2021/07/22 03:01:24;;;;;;;7.87;5.47;;;;;;;16.30;98.38;101401.81;4977825;28;20621;-75
2021/07/22 03:03:51;;;;;;;7.13;5.00;;;;;;;16.31;99.01;101405.31;4995514;28;20675;-76
2021/07/22 03:06:20;;;;;;;8.57;5.53;;;;;;;16.31;98.96;101405.31;4965725;28;20303;-76
2021/07/22 03:08:54;;;;;;;7.70;5.50;;;;;;;16.33;99.57;101396.44;4991803;28;20209;-76
2021/07/22 03:11:21;;;;;;;9.13;5.77;;;;;;;16.31;99.41;101398.28;4977887;28;20299;-76
2021/07/22 03:13:51;;;;;;;9.63;5.57;;;;;;;16.28;98.65;101401.88;4964704;28;20702;-76
2021/07/22 03:16:18;;;;;;;9.63;5.90;;;;;;;16.29;99.30;101400.13;4994458;28;20240;-76
2021/07/22 03:19:05;;;;;;;8.90;5.60;;;;;;;16.25;98.80;101396.75;4982251;28;20221;-76
2021/07/22 03:21:43;;;;;;;9.20;6.07;;;;;;;16.27;99.39;101401.94;4982968;28;20205;-76
2021/07/22 03:24:28;;;;;;;8.27;6.20;;;;;;;16.28;99.57;101395.75;4975435;28;20254;-76
2021/07/22 03:26:55;;;;;;;8.00;5.70;;;;;;;16.25;99.36;101391.47;4982322;28;20247;-76
2021/07/22 03:29:24;;;;;;;9.60;5.80;;;;;;;16.25;99.72;101394.09;4964006;28;20259;-75
2021/07/22 03:31:52;;;;;;;7.37;5.10;;;;;;;16.26;99.60;101398.44;4983567;28;20288;-76
2021/07/22 03:34:23;;;;;;;8.27;5.73;;;;;;;16.24;99.60;101399.44;4978583;28;20228;-76
2021/07/22 03:36:58;;;;;;;7.47;5.17;;;;;;;16.28;99.88;101395.75;4984642;28;20557;-76
2021/07/22 03:39:25;;;;;;;9.70;5.47;;;;;;;16.28;99.26;101398.38;4977945;28;20523;-76
2021/07/22 03:42:02;;;;;;;8.53;5.80;;;;;;;16.26;99.31;101401.06;4973048;28;20211;-76
2021/07/22 03:44:48;;;;;;;8.90;5.87;;;;;;;16.26;99.34;101400.22;4979202;28;20244;-75
2021/07/22 03:47:18;;;;;;;5.93;4.80;;;;;;;16.26;99.75;101395.81;4980991;28;20592;-76
2021/07/22 03:49:47;;;;;;;10.20;6.30;;;;;;;16.28;99.79;101395.75;4966360;28;20671;-76
2021/07/22 03:52:33;;;;;;;8.77;5.73;;;;;;;16.28;99.33;101393.97;4963374;28;20688;-76
2021/07/22 03:54:59;;;;;;;9.07;5.83;;;;;;;16.29;99.11;101397.47;4983855;28;20794;-75
2021/07/22 03:57:27;;;;;;;8.77;5.60;;;;;;;16.33;100.00;101396.44;4962205;28;20301;-76
2021/07/22 03:59:55;;;;;;;8.17;5.27;;;;;;;16.35;99.10;101397.22;4972117;28;20212;-76
2021/07/22 04:02:22;;;;;;;8.03;5.70;;;;;;;16.33;99.46;101396.44;4965745;28;20202;-76
2021/07/22 04:04:48;;;;;;;9.27;5.70;;;;;;;16.38;99.70;101397.13;4965002;28;20719;-76
2021/07/22 04:07:17;;;;;;;11.03;6.33;;;;;;;16.36;99.82;101396.34;4980335;28;20264;-76
2021/07/22 04:09:50;;;;;;;9.03;6.07;;;;;;;16.35;99.27;101391.97;4996717;28;20377;-75
2021/07/22 04:12:22;;;;;;;9.00;6.20;;;;;;;16.37;99.80;101400.66;4983341;28;20213;-76
2021/07/22 04:15:23;;;;;;;9.80;6.13;;;;;;;16.35;99.06;101399.88;4954760;28;20693;-76
2021/07/22 04:18:10;;;;;;;8.97;6.03;;;;;;;16.41;99.19;101396.13;4984919;28;20201;-75
2021/07/22 04:20:55;;;;;;;9.53;6.27;;;;;;;16.41;100.00;101396.13;4981221;28;20217;-76
2021/07/22 04:23:30;;;;;;;8.67;5.90;;;;;;;16.47;100.00;101396.75;4987951;28;20209;-76
2021/07/22 04:26:16;;;;;;;8.87;5.97;;;;;;;16.46;99.13;101402.09;4994240;28;20945;-76
2021/07/22 04:28:58;;;;;;;9.37;5.90;;;;;;;16.46;99.16;101402.97;4969923;28;20292;-75
2021/07/22 04:31:28;;;;;;;8.57;5.63;;;;;;;16.50;100.00;101405.47;4984740;28;20221;-75
2021/07/22 04:34:12;;;;;;;10.67;6.47;;;;;;;16.53;100.00;101402.72;4968853;28;20321;-75
2021/07/22 04:36:47;;;;;;;8.77;6.00;;;;;;;16.53;100.00;101398.28;4976268;28;20200;-76
2021/07/22 04:39:42;;;;;;;11.43;5.77;;;;;;;16.52;99.37;101404.50;4961884;28;20295;-75
2021/07/22 04:42:30;;;;;;;9.60;6.27;;;;;;;16.56;99.03;101408.72;4968761;28;20733;-76
2021/07/22 04:45:14;;;;;;;11.87;6.90;;;;;;;16.61;98.66;101409.41;4969184;28;20316;-76
2021/07/22 04:48:06;;;;;;;10.07;6.50;;;;;;;16.62;98.73;101399.72;4977116;28;20301;-76
2021/07/22 04:50:52;;;;;;;8.50;5.87;;;;;;;16.62;99.36;101403.22;4990351;28;20205;-76
2021/07/22 04:53:30;;;;;;;9.67;6.07;;;;;;;16.64;99.66;101405.81;4972520;28;20457;-76
2021/07/22 04:56:03;;;;;;;10.00;6.03;;;;;;;16.67;99.52;101405.66;4988081;28;20671;-76
2021/07/22 04:58:33;;;;;;;7.90;5.87;;;;;;;16.67;98.46;101405.66;4996184;28;20262;-76
2021/07/22 05:01:03;;;;;;;9.93;6.60;;;;;;;16.68;98.43;101409.16;4972728;28;20288;-76
2021/07/22 05:03:31;;;;;;;9.23;6.10;;;;;;;16.75;99.58;101406.22;4982128;28;20202;-76
2021/07/22 05:05:58;;;;;;;7.57;5.40;;;;;;;16.74;98.57;101408.91;4991667;28;20221;-76
2021/07/22 05:08:29;;;;;;;9.63;6.37;;;;;;;16.76;97.91;101404.44;4977289;28;20237;-75
2021/07/22 05:11:07;;;;;;;10.60;5.93;;;;;;;16.81;98.58;101407.75;4998038;28;20703;-76
2021/07/22 05:13:54;;;;;;;8.27;5.80;;;;;;;16.86;98.81;101402.34;4985743;28;20208;-75
2021/07/22 05:16:44;;;;;;;8.47;6.30;;;;;;;16.91;99.02;101405.66;4969781;28;20705;-75
2021/07/22 05:19:18;;;;;;;9.57;6.37;;;;;;;16.91;98.11;101400.38;4970588;28;20889;-76
2021/07/22 05:22:06;;;;;;;10.13;6.13;;;;;;;16.99;97.88;101404.44;4963054;28;20224;-76
2021/07/22 05:24:38;;;;;;;9.40;5.97;;;;;;;16.98;97.66;101397.44;4986898;28;20586;-76
2021/07/22 05:27:28;;;;;;;10.17;6.07;;;;;;;17.03;98.03;101403.38;4969640;28;20236;-76
2021/07/22 05:30:13;;;;;;;8.67;5.97;;;;;;;17.06;98.00;101405.00;4986470;28;20268;-76
2021/07/22 05:32:58;;;;;;;9.87;6.13;;;;;;;17.11;96.95;101402.19;4985368;28;20248;-76
2021/07/22 05:35:47;;;;;;;9.47;6.20;;;;;;;17.14;97.61;101400.28;4968174;28;20299;-76
2021/07/22 05:38:40;;;;;;;8.67;6.27;;;;;;;17.14;95.86;101392.38;4978468;28;20283;-75
2021/07/22 05:41:07;;;;;;;9.53;6.30;;;;;;;17.19;95.77;101405.38;4982877;28;20252;-76
2021/07/22 05:43:34;;;;;;;10.37;6.03;;;;;;;17.26;96.79;101403.34;4995550;28;20205;-76
2021/07/22 05:46:00;;;;;;;9.00;6.10;;;;;;;17.21;95.37;101404.38;4983935;28;20267;-75
2021/07/22 05:48:26;;;;;;;8.90;6.73;;;;;;;17.25;95.27;101402.47;4985486;28;20797;-75
2021/07/22 05:50:54;;;;;;;11.60;5.80;;;;;;;17.28;95.44;101410.25;4980643;28;20655;-76
2021/07/22 05:53:21;;;;;;;9.37;6.60;;;;;;;17.35;95.82;101400.31;4995382;28;20216;-75
2021/07/22 05:55:47;;;;;;;10.13;6.47;;;;;;;17.40;94.59;101403.63;4982202;28;20268;-76
2021/07/22 05:58:13;;;;;;;8.60;6.17;;;;;;;17.42;94.42;101407.91;4994562;28;20203;-76
2021/07/22 06:00:40;;;;;;;11.57;6.93;;;;;;;17.42;94.02;101405.25;4976883;28;20288;-76
2021/07/22 06:03:07;;;;;;;9.83;6.47;;;;;;;17.48;93.48;101412.03;4983197;28;20209;-76
2021/07/22 06:05:35;;;;;;;10.23;6.60;;;;;;;17.48;93.42;101412.03;4981618;28;20249;-75
2021/07/22 06:08:03;;;;;;;10.87;6.67;;;;;;;17.56;94.27;101420.50;4959179;28;20209;-76
2021/07/22 06:10:30;;;;;;;9.13;6.33;;;;;;;17.63;94.29;101417.59;4982981;28;20229;-76
2021/07/22 06:12:57;;;;;;;11.07;6.13;;;;;;;17.62;93.29;101414.09;4985705;28;20239;-75
2021/07/22 06:15:24;;;;;;;8.57;6.20;;;;;;;17.68;93.50;101419.13;4989996;28;20235;-76
2021/07/22 06:17:50;;;;;;;9.33;6.03;;;;;;;17.76;93.40;101419.66;4980261;28;20198;-75
2021/07/22 06:20:17;;;;;;;9.73;6.63;;;;;;;17.77;92.01;101420.50;4983663;28;20346;-76
2021/07/22 06:22:44;;;;;;;9.07;5.90;;;;;;;17.77;91.68;101412.59;4985129;28;20560;-76
2021/07/22 06:25:13;;;;;;;9.73;6.43;;;;;;;17.83;91.67;101427.28;4982898;28;20240;-75
2021/07/22 06:27:40;;;;;;;10.50;7.00;;;;;;;17.84;91.81;101416.66;4963049;28;20237;-76
2021/07/22 06:30:07;;;;;;;10.33;6.47;;;;;;;17.90;91.05;101428.75;4989334;28;20248;-75
2021/07/22 06:32:34;;;;;;;8.80;6.23;;;;;;;17.93;91.63;101423.34;4986384;28;20225;-75
2021/07/22 06:35:00;;;;;;;10.90;7.27;;;;;;;17.96;90.82;101423.22;4989104;28;20307;-75
2021/07/22 06:37:26;;;;;;;10.37;6.70;;;;;;;17.98;90.89;101419.56;4978247;28;20202;-76
2021/07/22 06:40:02;;;;;;;9.17;6.17;;;;;;;18.07;91.86;101414.81;4964722;28;20209;-76
2021/07/22 06:42:32;;;;;;;10.07;6.97;;;;;;;18.03;89.73;101415.88;4979731;28;20209;-75
2021/07/22 06:44:58;;;;;;;10.10;6.40;;;;;;;18.07;90.45;101420.94;4985620;28;20840;-76
2021/07/22 06:47:25;;;;;;;10.90;6.87;;;;;;;18.10;89.74;101422.56;4978087;28;20197;-75
2021/07/22 06:49:51;;;;;;;10.50;6.37;;;;;;;18.12;90.39;101426.88;4985075;28;20727;-76
2021/07/22 06:52:18;;;;;;;12.67;7.47;;;;;;;18.18;89.91;101423.09;4979982;28;20224;-75
2021/07/22 06:54:44;;;;;;;11.83;6.83;;;;;;;18.23;88.98;101428.19;4983359;28;20304;-76
2021/07/22 06:57:10;;;;;;;9.97;6.17;;;;;;;18.30;90.61;101416.41;4982002;28;20207;-76
2021/07/22 06:59:38;;;;;;;9.83;7.20;;;;;;;18.31;89.00;101426.91;4986865;28;20209;-76
2021/07/22 07:02:04;;;;;;;10.90;6.97;;;;;;;18.30;88.98;101433.09;4984183;28;20203;-76
2021/07/22 07:04:31;;;;;;;9.93;6.63;;;;;;;18.35;89.28;101431.09;4981843;28;20213;-76
2021/07/22 07:06:57;;;;;;;9.53;6.83;;;;;;;18.42;88.04;101428.19;4980672;28;20209;-76
2021/07/22 07:09:23;;;;;;;11.03;7.23;;;;;;;18.48;88.85;101422.63;4978139;28;20906;-75
2021/07/22 07:11:50;;;;;;;9.97;6.90;;;;;;;18.51;89.05;101428.59;4981506;28;20208;-76
2021/07/22 07:14:16;;;;;;;10.70;7.20;;;;;;;18.56;88.57;101425.75;4981683;28;20225;-76
2021/07/22 07:16:44;;;;;;;9.63;7.00;;;;;;;18.64;88.01;101434.16;4989748;28;20207;-75
2021/07/22 07:19:10;;;;;;;10.33;7.03;;;;;;;18.73;88.50;101432.88;4982505;28;20216;-76
2021/07/22 07:21:37;;;;;;;11.23;7.10;;;;;;;18.77;87.75;101436.22;4992576;28;20208;-76
2021/07/22 07:24:04;;;;;;;10.93;7.63;;;;;;;18.76;86.65;101434.53;4980240;28;20205;-77
2021/07/22 07:26:30;;;;;;;9.10;6.87;;;;;;;18.87;87.17;101429.59;4994260;28;20220;-77
2021/07/22 07:28:56;;;;;;;9.43;6.93;;;;;;;18.87;85.96;101433.13;4980264;28;20691;-76
2021/07/22 07:31:23;;;;;;;11.23;7.60;;;;;;;18.91;85.73;101436.47;4984568;28;20965;-77
2021/07/22 07:33:51;;;;;;;12.57;7.93;;;;;;;19.01;87.31;101427.16;4977174;28;20221;-76
2021/07/22 07:36:18;;;;;;;10.77;7.20;;;;;;;19.04;85.57;101437.56;4984943;28;20228;-76
2021/07/22 07:38:44;;;;;;;11.30;7.33;;;;;;;19.05;84.89;101433.13;4979501;28;20637;-76
2021/07/22 07:41:10;;;;;;;12.13;8.00;;;;;;;19.15;86.61;101431.75;4990069;28;20216;-76
2021/07/22 07:43:37;;;;;;;12.50;7.73;;;;;;;19.20;84.13;101437.66;4981483;28;20208;-76
2021/07/22 07:46:03;;;;;;;11.47;7.03;;;;;;;19.25;83.63;101437.47;4995508;28;20240;-76
2021/07/22 07:48:29;;;;;;;10.07;7.40;;;;;;;19.31;82.58;101434.50;4981302;28;20563;-76
2021/07/22 07:50:57;;;;;;;11.33;7.57;;;;;;;19.43;83.25;101438.31;4994440;28;20239;-76
2021/07/22 07:53:24;;;;;;;11.70;8.00;;;;;;;19.46;82.37;101439.00;4985039;28;20622;-76
2021/07/22 07:55:50;;;;;;;9.97;6.83;;;;;;;19.55;82.14;101431.56;4995243;28;20229;-75
2021/07/22 07:58:17;;;;;;;10.63;7.37;;;;;;;19.60;82.13;101429.53;4983292;28;20205;-75
2021/07/22 08:00:43;;;;;;;9.33;6.77;;;;;;;19.67;80.53;101439.72;4987983;28;20213;-76
2021/07/22 08:03:17;;;;;;;10.97;7.60;;;;;;;19.72;80.50;101438.59;4988906;28;20200;-76
2021/07/22 08:05:43;;;;;;;11.33;8.03;;;;;;;19.72;80.82;101447.41;4990677;28;20234;-76
2021/07/22 08:08:11;;;;;;;12.47;7.27;;;;;;;19.73;80.50;101432.41;4986437;28;20213;-76
2021/07/22 08:10:40;;;;;;;14.00;7.90;;;;;;;19.84;80.82;101433.59;4983921;28;20215;-76
2021/07/22 08:13:07;;;;;;;10.60;7.27;;;;;;;19.93;81.49;101434.91;4994285;28;20840;-76
2021/07/22 08:15:33;;;;;;;11.47;7.87;;;;;;;19.93;79.68;101434.91;4985012;28;20316;-76
2021/07/22 08:18:00;;;;;;;12.37;8.13;;;;;;;20.04;80.73;101439.63;4997451;28;20192;-76
2021/07/22 08:20:26;;;;;;;13.60;7.93;;;;;;;20.10;79.20;101444.56;4981483;28;20213;-75
2021/07/22 08:22:52;;;;;;;12.60;7.90;;;;;;;20.24;77.45;101433.25;4986276;28;20200;-76
2021/07/22 08:25:20;;;;;;;9.97;7.20;;;;;;;20.23;78.95;101427.09;4982871;28;20726;-76
2021/07/22 08:27:47;;;;;;;11.70;7.30;;;;;;;20.27;78.17;101433.09;4985334;28;20206;-76
2021/07/22 08:30:14;;;;;;;12.43;7.90;;;;;;;20.36;78.81;101431.72;4982090;28;20537;-76
2021/07/22 08:32:40;;;;;;;10.63;7.63;;;;;;;20.42;75.89;101439.31;4991392;28;20579;-75
2021/07/22 08:35:07;;;;;;;11.33;7.57;;;;;;;20.56;77.31;101434.16;4985746;28;20774;-75
2021/07/22 08:37:34;;;;;;;10.83;7.37;;;;;;;20.63;77.78;101428.53;4995807;28;20197;-76
2021/07/22 08:40:03;;;;;;;11.80;6.73;;;;;;;20.75;76.41;101428.69;4984259;28;20669;-76
2021/07/22 08:42:35;;;;;;;11.50;7.43;;;;;;;20.75;75.70;101430.50;4987198;28;20205;-76
2021/07/22 08:45:03;;;;;;;10.17;6.97;;;;;;;20.92;77.22;101427.75;4980901;28;20309;-76
2021/07/22 08:47:30;;;;;;;11.43;7.40;;;;;;;20.94;72.89;101430.31;4991149;28;20210;-76
2021/07/22 08:49:57;;;;;;;10.73;6.87;;;;;;;21.08;74.13;101433.03;4987860;28;20204;-76
2021/07/22 08:52:23;;;;;;;9.77;6.93;;;;;;;21.19;73.46;101437.69;4990937;28;20897;-76
2021/07/22 08:54:50;;;;;;;10.45;6.75;;;;;;;21.32;74.62;101428.09;4985685;28;20303;-75
2021/07/22 08:57:18;;;;;;;11.65;7.05;;;;;;;21.51;75.90;101427.91;4991483;28;20201;-76
2021/07/22 08:59:47;;;;;;;10.15;7.07;;;;;;;21.58;74.35;101431.00;4985993;28;20303;-75
2021/07/22 09:02:21;;;;;;;8.35;6.07;;;;;;;21.49;71.09;101432.41;4988937;28;20205;-76
2021/07/22 09:04:51;;;;;;;9.70;6.57;;;;;;;21.68;74.32;101428.69;4984760;28;20240;-75
2021/07/22 09:07:19;;;;;;;10.00;6.93;;;;;;;21.64;71.18;101433.31;4983881;28;20654;-76
2021/07/22 09:10:11;;;;;;;10.10;6.47;;;;;;;21.82;73.01;101426.03;4994772;28;20219;-75
2021/07/22 09:12:38;;;;;;;9.68;6.50;;;;;;;21.94;69.98;101429.75;4982298;28;20213;-76
2021/07/22 09:15:07;;;;;;;12.00;7.35;;;;;;;22.04;67.92;101436.22;4985906;28;20594;-76
2021/07/22 09:17:34;;;;;;;9.57;6.20;;;;;;;22.08;68.25;101431.56;4981488;28;20217;-76
2021/07/22 09:20:00;;;;;;;8.52;6.18;;;;;;;22.14;70.32;101431.16;4999629;28;20688;-75
2021/07/22 09:22:34;;;;;;;9.13;6.32;;;;;;;22.24;66.47;101428.81;4980942;28;20304;-76
2021/07/22 09:25:00;;;;;;;8.68;6.32;;;;;;;22.23;67.11;101440.34;4990233;28;20272;-75
2021/07/22 09:27:40;;;;;;;8.93;5.60;;;;;;;22.36;69.52;101428.06;4982272;28;20240;-76
2021/07/22 09:30:10;;;;;;;9.60;5.90;;;;;;;22.35;69.09;101426.34;4979766;28;20209;-76
2021/07/22 09:32:39;;;;;;;8.18;5.65;;;;;;;22.26;64.80;101429.56;4983776;28;20234;-76
2021/07/22 09:35:11;;;;;;;8.70;5.72;;;;;;;22.43;67.23;101425.88;4988663;28;20235;-75
2021/07/22 09:37:39;;;;;;;7.95;5.80;;;;;;;22.61;67.34;101426.50;4987957;28;20240;-76
2021/07/22 09:40:08;;;;;;;10.13;6.32;;;;;;;22.64;67.70;101428.97;4985178;28;20206;-76
2021/07/22 09:42:42;;;;;;;9.30;6.53;;;;;;;22.70;65.46;101425.91;4984807;28;20261;-76
2021/07/22 09:45:30;;;;;;;10.18;6.35;;;;;;;22.84;64.89;101425.00;4981603;28;20229;-76
2021/07/22 09:48:05;;;;;;;11.25;5.93;;;;;;;22.88;66.44;101427.38;4989666;28;20205;-76
2021/07/22 09:50:39;;;;;;;7.90;6.05;;;;;;;23.04;63.14;101431.66;4983105;28;20317;-76
2021/07/22 09:53:07;;;;;;;7.53;5.65;;;;;;;23.05;63.84;101428.94;4988450;28;20229;-76
2021/07/22 09:55:34;;;;;;;6.70;5.03;;;;;;;23.02;62.32;101430.91;4961902;28;20222;-76
2021/07/22 09:58:02;;;;;;;9.43;6.10;;;;;;;23.26;62.02;101428.47;4981063;28;20200;-76
2021/07/22 10:00:32;;;;;;;7.38;5.60;;;;;;;23.24;63.36;101425.91;4983180;28;20201;-76
2021/07/22 10:03:01;;;;;;;8.77;6.43;;;;;;;23.27;61.64;101426.66;4991755;28;20668;-76
2021/07/22 10:05:30;;;;;;;7.88;5.63;;;;;;;23.37;63.59;101430.41;4990518;28;20826;-76
2021/07/22 10:07:58;;;;;;;7.57;6.10;;;;;;;23.39;62.14;101426.69;4987190;28;20245;-77
2021/07/22 10:10:27;;;;;;;8.18;6.13;;;;;;;23.34;61.67;101426.16;4994757;28;20287;-77
2021/07/22 10:12:55;;;;;;;8.13;5.97;;;;;;;23.48;60.52;101421.69;4986580;28;20300;-76
2021/07/22 10:15:24;;;;;;;7.95;5.80;;;;;;;23.48;60.09;101429.66;4995174;28;20745;-76
2021/07/22 10:17:54;;;;;;;8.80;5.90;;;;;;;23.53;61.17;101427.56;4986010;28;20202;-76
2021/07/22 10:20:23;;;;;;;8.80;5.45;;;;;;;23.42;61.37;101423.81;4993101;28;20208;-76
2021/07/22 10:22:49;;;;;;;7.40;5.68;;;;;;;23.53;60.41;101425.72;4983571;28;20205;-77
2021/07/22 10:25:17;;;;;;;7.60;5.60;;;;;;;23.65;61.90;101416.06;4991612;28;20229;-76
2021/07/22 10:27:44;;;;;;;7.72;5.95;;;;;;;23.70;60.69;101423.75;4983737;28;20201;-76
2021/07/22 10:30:13;;;;;;;8.30;5.88;;;;;;;23.74;58.39;101415.41;4997409;28;20300;-76
2021/07/22 10:32:41;;;;;;;8.82;5.60;;;;;;;23.77;60.08;101409.88;4981622;28;20865;-76
2021/07/22 10:35:10;;;;;;;8.63;5.72;;;;;;;23.76;60.73;101408.22;4994553;28;20221;-76
2021/07/22 10:37:36;;;;;;;7.60;5.82;;;;;;;23.93;61.65;101409.69;4982101;28;20521;-76
2021/07/22 10:40:08;;;;;;;7.35;5.32;;;;;;;24.06;61.92;101406.16;4987125;28;20217;-76
2021/07/22 10:42:43;;;;;;;7.93;5.50;;;;;;;24.19;61.39;101405.19;4983582;28;20202;-76
2021/07/22 10:45:29;;;;;;;8.18;5.80;;;;;;;24.07;58.96;101410.56;4983565;28;20750;-77
2021/07/22 10:48:06;;;;;;;8.75;5.82;;;;;;;24.02;60.44;101408.19;4985785;28;20304;-76
2021/07/22 10:51:12;;;;;;;7.15;5.47;;;;;;;24.18;57.97;101402.63;4981157;28;20288;-76
2021/07/22 10:53:42;;;;;;;7.75;6.03;;;;;;;24.25;59.93;101397.72;4950400;28;20307;-76
2021/07/22 10:56:09;;;;;;;8.10;6.03;;;;;;;24.27;58.72;101407.28;4983488;28;20233;-76
2021/07/22 10:58:53;;;;;;;7.93;5.85;;;;;;;24.36;58.55;101404.00;4998417;28;20228;-76
2021/07/22 11:02:00;;;;;;;8.27;5.50;;;;;;;24.14;55.76;101407.34;4982405;28;20201;-76
2021/07/22 11:04:43;;;;;;;5.35;4.82;;;;;;;24.24;55.77;101404.88;4985370;28;20228;-76
2021/07/22 11:07:20;;;;;;;7.20;4.90;;;;;;;24.27;55.55;101404.63;4994425;28;20214;-76
2021/07/22 11:09:49;;;;;;;6.75;5.22;;;;;;;24.22;55.66;101398.81;4985082;28;20699;-77
2021/07/22 11:12:47;;;;;;;7.57;5.45;;;;;;;24.28;56.17;101393.03;4988027;28;20289;-76
2021/07/22 11:15:39;;;;;;;7.10;5.60;;;;;;;24.35;54.54;101390.78;4971866;28;20224;-76
2021/07/22 11:18:42;;;;;;;7.35;5.40;;;;;;;24.28;55.06;101386.84;4986966;28;20219;-76
2021/07/22 11:21:10;;;;;;;7.03;4.93;;;;;;;24.16;53.38;101383.25;4985181;28;20227;-76
2021/07/22 11:23:36;;;;;;;6.72;5.30;;;;;;;24.20;59.12;101366.06;4985867;28;20205;-76
2021/07/22 11:26:05;;;;;;;7.07;5.28;;;;;;;24.23;57.90;101381.84;4987015;28;20225;-76
2021/07/22 11:28:31;;;;;;;8.68;5.40;;;;;;;24.10;55.33;101373.06;4985016;28;20213;-76
2021/07/22 11:31:05;;;;;;;6.93;5.07;;;;;;;24.17;59.10;101363.66;4995072;28;20295;-76
2021/07/22 11:33:33;;;;;;;7.28;5.18;;;;;;;24.21;58.44;101357.13;4980155;28;20208;-76
2021/07/22 11:36:01;;;;;;;7.75;5.45;;;;;;;24.12;57.32;101361.31;4986267;28;20217;-76
2021/07/22 11:38:28;;;;;;;8.45;5.75;;;;;;;23.93;54.70;101361.78;4985922;28;20205;-76